createdAt,value
2017-07-25T00:01:54.946Z,57.80
2017-07-25T00:04:21.971Z,57.20
2017-07-25T00:06:49.767Z,55.90
2017-07-25T00:09:16.802Z,55.90
2017-07-25T00:11:43.846Z,56.90
2017-07-25T00:14:10.889Z,56.80
2017-07-25T00:16:38.692Z,56.60
2017-07-25T00:19:05.732Z,56.60
2017-07-25T00:21:32.765Z,55.90
2017-07-25T00:23:59.828Z,55.80
2017-07-25T00:26:26.865Z,56.10
2017-07-25T00:28:53.897Z,56.80
2017-07-25T00:31:21.705Z,54.50
2017-07-25T00:33:48.737Z,54.50
2017-07-25T00:36:15.769Z,54.10
2017-07-25T00:38:42.817Z,54.00
2017-07-25T00:41:09.854Z,53.70
2017-07-25T00:43:37.647Z,53.70
2017-07-25T00:46:04.697Z,53.70
2017-07-25T00:48:31.720Z,54.10
2017-07-25T00:50:59.515Z,54.30
2017-07-25T00:53:26.607Z,54.30
2017-07-25T00:55:53.637Z,54.90
2017-07-25T00:58:20.673Z,54.80
2017-07-25T01:00:47.721Z,55.50
2017-07-25T01:03:14.747Z,56.00
2017-07-25T01:05:41.776Z,55.80
2017-07-25T01:08:08.828Z,56.40
2017-07-25T01:10:35.865Z,56.90
2017-07-25T01:13:03.665Z,57.20
2017-07-25T01:15:30.712Z,57.20
2017-07-25T01:17:57.736Z,57.40
2017-07-25T01:20:25.543Z,55.50
2017-07-25T01:22:52.585Z,55.40
2017-07-25T01:25:19.619Z,55.40
2017-07-25T01:27:46.652Z,55.50
2017-07-25T01:30:13.697Z,55.20
2017-07-25T01:32:41.498Z,55.40
2017-07-25T01:35:08.532Z,55.30
2017-07-25T01:37:35.582Z,56.30
2017-07-25T01:40:02.639Z,55.60
2017-07-25T01:42:29.672Z,55.20
2017-07-25T01:44:56.916Z,55.00
2017-07-25T01:47:23.957Z,54.80
2017-07-25T01:49:51.777Z,55.00
2017-07-25T01:52:18.825Z,55.00
2017-07-25T01:54:45.862Z,54.80
2017-07-25T01:57:12.890Z,55.00
2017-07-25T01:59:39.991Z,55.00
2017-07-25T02:02:07.016Z,55.00
2017-07-25T02:04:34.061Z,54.80
2017-07-25T02:07:01.117Z,55.10
2017-07-25T02:09:28.157Z,57.00
2017-07-25T02:11:55.187Z,57.40
2017-07-25T02:14:22.230Z,56.60
2017-07-25T02:16:49.256Z,56.00
2017-07-25T02:19:17.058Z,59.00
2017-07-25T02:21:44.398Z,59.00
2017-07-25T02:24:11.428Z,58.70
2017-07-25T02:26:39.233Z,57.90
2017-07-25T02:29:06.282Z,57.90
2017-07-25T02:31:33.306Z,56.50
2017-07-25T02:34:00.347Z,55.80
2017-07-25T02:36:27.393Z,55.30
2017-07-25T02:38:54.426Z,57.00
2017-07-25T02:41:22.230Z,57.90
2017-07-25T02:43:49.282Z,57.50
2017-07-25T02:46:16.317Z,57.30
2017-07-25T02:48:43.352Z,57.70
2017-07-25T02:51:10.418Z,57.60
2017-07-25T02:53:37.458Z,57.20
2017-07-25T02:56:04.500Z,56.50
2017-07-25T02:58:31.548Z,55.90
2017-07-25T03:00:58.582Z,56.00
2017-07-25T03:03:26.390Z,56.00
2017-07-25T03:05:53.477Z,55.40
2017-07-25T03:08:20.500Z,55.80
2017-07-25T03:10:47.520Z,56.20
2017-07-25T03:13:14.585Z,56.40
2017-07-25T03:15:41.611Z,56.10
2017-07-25T03:18:08.644Z,58.10
2017-07-25T03:20:36.459Z,56.90
2017-07-25T03:23:09.330Z,56.80
2017-07-25T03:25:36.569Z,56.70
2017-07-25T03:28:03.600Z,57.20
2017-07-25T03:30:31.411Z,56.70
2017-07-25T03:32:58.472Z,56.60
2017-07-25T03:37:58.081Z,58.40
2017-07-25T03:40:25.137Z,57.40
2017-07-25T03:42:52.174Z,56.90
2017-07-25T03:45:19.214Z,56.90
2017-07-25T03:47:46.253Z,56.60
2017-07-25T03:50:13.312Z,56.70
2017-07-25T03:52:40.349Z,56.80
2017-07-25T03:55:07.405Z,56.80
2017-07-25T03:57:34.436Z,57.00
2017-07-25T04:00:01.490Z,57.60
2017-07-25T04:02:28.549Z,59.00
2017-07-25T04:04:55.581Z,61.10
2017-07-25T04:07:22.630Z,62.20
2017-07-25T04:09:49.693Z,62.80
2017-07-25T04:12:16.733Z,63.10
2017-07-25T04:14:43.752Z,60.30
2017-07-25T04:17:10.808Z,59.50
2017-07-25T04:19:38.610Z,58.10
2017-07-25T04:22:05.645Z,58.00
2017-07-25T04:24:32.695Z,57.40
2017-07-25T04:26:59.725Z,57.10
2017-07-25T04:29:27.518Z,57.30
2017-07-25T04:31:54.570Z,57.20
2017-07-25T04:34:21.718Z,56.60
2017-07-25T04:36:48.742Z,56.90
2017-07-25T04:39:16.582Z,58.10
2017-07-25T04:41:43.622Z,58.10
2017-07-25T04:44:10.662Z,57.20
2017-07-25T04:46:37.704Z,56.90
2017-07-25T04:49:04.759Z,58.90
2017-07-25T04:51:31.810Z,57.90
2017-07-25T04:53:58.857Z,57.80
2017-07-25T04:56:25.893Z,57.70
2017-07-25T04:58:52.940Z,57.70
2017-07-25T05:01:20.056Z,57.60
2017-07-25T05:03:47.085Z,59.40
2017-07-25T05:06:14.886Z,59.50
2017-07-25T05:08:41.947Z,58.70
2017-07-25T05:11:08.984Z,58.30
2017-07-25T05:13:36.016Z,58.00
2017-07-25T05:16:03.085Z,57.80
2017-07-25T05:18:35.959Z,59.00
2017-07-25T05:21:02.999Z,58.80
2017-07-25T05:23:30.492Z,58.40
2017-07-25T05:25:57.521Z,57.70
2017-07-25T05:28:24.581Z,57.50
2017-07-25T05:30:51.629Z,57.50
2017-07-25T05:33:18.662Z,57.40
2017-07-25T05:35:45.711Z,57.50
2017-07-25T05:38:12.749Z,59.70
2017-07-25T05:40:39.794Z,60.80
2017-07-25T05:43:07.633Z,59.80
2017-07-25T05:45:34.670Z,59.80
2017-07-25T05:48:01.704Z,60.10
2017-07-25T05:50:28.767Z,59.30
2017-07-25T05:52:55.788Z,59.10
2017-07-25T05:55:22.827Z,59.50
2017-07-25T05:57:49.961Z,59.90
2017-07-25T06:00:16.997Z,60.60
2017-07-25T06:02:44.797Z,60.00
2017-07-25T06:05:11.859Z,60.00
2017-07-25T06:07:38.900Z,61.10
2017-07-25T06:10:05.934Z,60.40
2017-07-25T06:12:32.996Z,60.70
2017-07-25T06:15:00.037Z,60.80
2017-07-25T06:17:27.085Z,60.40
2017-07-25T06:19:54.140Z,58.10
2017-07-25T06:22:21.159Z,59.00
2017-07-25T06:24:48.192Z,59.00
2017-07-25T06:27:16.013Z,59.50
2017-07-25T06:29:43.042Z,59.30
2017-07-25T06:32:10.074Z,59.50
2017-07-25T06:34:37.132Z,59.40
2017-07-25T06:37:04.170Z,59.00
2017-07-25T06:39:31.196Z,58.00
2017-07-25T06:41:59.016Z,60.60
2017-07-25T06:44:26.054Z,60.50
2017-07-25T06:46:53.079Z,60.30
2017-07-25T06:49:20.132Z,59.90
2017-07-25T06:51:47.165Z,59.90
2017-07-25T06:54:14.969Z,60.00
2017-07-25T06:56:42.016Z,59.80
2017-07-25T06:59:09.054Z,58.30
2017-07-25T07:01:36.080Z,58.50
2017-07-25T07:04:03.888Z,56.40
2017-07-25T07:06:32.556Z,55.40
2017-07-25T07:08:59.591Z,55.10
2017-07-25T07:11:26.642Z,56.50
2017-07-25T07:13:53.676Z,56.50
2017-07-25T07:16:21.566Z,55.70
2017-07-25T07:18:48.614Z,55.60
2017-07-25T07:21:15.653Z,56.20
2017-07-25T07:23:42.685Z,55.30
2017-07-25T07:26:10.492Z,56.20
2017-07-25T07:28:37.521Z,56.00
2017-07-25T07:31:04.568Z,54.90
2017-07-25T07:33:31.614Z,53.80
2017-07-25T07:35:58.645Z,55.10
2017-07-25T07:38:26.444Z,54.00
2017-07-25T07:40:53.489Z,53.70
2017-07-25T07:43:20.526Z,53.50
2017-07-25T07:45:47.565Z,53.80
2017-07-25T07:48:15.389Z,52.40
2017-07-25T07:50:42.425Z,52.40
2017-07-25T07:53:09.465Z,51.80
2017-07-25T07:55:36.518Z,52.20
2017-07-25T07:58:03.566Z,51.70
2017-07-25T08:00:30.601Z,52.00
2017-07-25T08:02:57.649Z,52.10
2017-07-25T08:05:24.690Z,52.20
2017-07-25T08:07:51.736Z,49.70
2017-07-25T08:10:18.798Z,49.80
2017-07-25T08:12:45.842Z,49.40
2017-07-25T08:15:12.870Z,48.00
2017-07-25T08:17:39.911Z,49.10
2017-07-25T08:20:07.708Z,43.10
2017-07-25T08:22:34.743Z,43.00
2017-07-25T08:25:01.789Z,40.50
2017-07-25T08:27:28.826Z,40.10
2017-07-25T08:29:56.636Z,38.40
2017-07-25T08:32:23.680Z,38.40
2017-07-25T08:34:50.717Z,38.70
2017-07-25T08:37:17.772Z,40.20
2017-07-25T08:39:44.812Z,39.70
2017-07-25T08:42:11.860Z,36.90
2017-07-25T08:44:38.889Z,40.00
2017-07-25T08:47:05.929Z,39.10
2017-07-25T08:49:33.722Z,40.40
2017-07-25T08:52:00.748Z,40.40
2017-07-25T08:54:28.562Z,41.30
2017-07-25T08:56:55.606Z,41.20
2017-07-25T08:59:22.655Z,40.00
2017-07-25T09:01:49.713Z,40.10
2017-07-25T09:04:16.745Z,40.00
2017-07-25T09:06:43.785Z,39.90
2017-07-25T09:09:10.835Z,37.60
2017-07-25T09:11:37.882Z,38.00
2017-07-25T09:14:04.913Z,38.10
2017-07-25T09:16:31.971Z,38.10
2017-07-25T09:18:58.992Z,40.80
2017-07-25T09:21:26.892Z,37.30
2017-07-25T09:23:53.934Z,37.10
2017-07-25T09:26:20.965Z,35.00
2017-07-25T09:28:47.997Z,37.20
2017-07-25T09:31:15.817Z,36.50
2017-07-25T09:33:42.854Z,36.60
2017-07-25T09:36:09.889Z,38.80
2017-07-25T09:38:36.928Z,36.40
2017-07-25T09:41:03.971Z,35.00
2017-07-25T09:43:31.761Z,34.50
2017-07-25T09:45:58.799Z,34.10
2017-07-25T09:48:25.838Z,34.20
2017-07-25T09:50:52.869Z,32.50
2017-07-25T09:53:20.676Z,32.40
2017-07-25T09:55:47.723Z,31.80
2017-07-25T09:58:14.767Z,32.20
2017-07-25T10:00:41.809Z,33.00
2017-07-25T10:03:08.849Z,29.90
2017-07-25T10:05:36.654Z,29.40
2017-07-25T10:08:03.700Z,29.30
2017-07-25T10:10:30.733Z,29.70
2017-07-25T10:12:57.768Z,29.50
2017-07-25T10:15:24.824Z,30.00
2017-07-25T10:17:51.852Z,30.10
2017-07-25T10:20:19.649Z,30.10
2017-07-25T10:22:46.700Z,30.20
2017-07-25T10:25:13.842Z,29.90
2017-07-25T10:27:40.880Z,30.80
2017-07-25T10:30:07.917Z,30.30
2017-07-25T10:32:34.948Z,30.00
2017-07-25T10:35:02.758Z,30.50
2017-07-25T10:37:29.809Z,29.80
2017-07-25T10:39:56.862Z,29.20
2017-07-25T10:42:23.888Z,28.80
2017-07-25T10:44:50.931Z,28.90
2017-07-25T10:47:17.969Z,28.40
2017-07-25T10:49:45.781Z,29.30
2017-07-25T10:52:12.824Z,29.20
2017-07-25T10:54:39.861Z,29.30
2017-07-25T10:57:06.903Z,30.00
2017-07-25T10:59:33.952Z,30.20
2017-07-25T11:02:00.981Z,29.80
2017-07-25T11:04:28.007Z,29.90
2017-07-25T11:06:55.055Z,30.90
2017-07-25T11:09:22.108Z,28.90
2017-07-25T11:11:49.910Z,29.40
2017-07-25T11:14:17.170Z,28.90
2017-07-25T11:16:44.204Z,30.10
2017-07-25T11:19:11.267Z,29.30
2017-07-25T11:21:38.313Z,30.10
2017-07-25T11:24:05.341Z,30.70
2017-07-25T11:26:32.373Z,31.10
2017-07-25T11:29:00.193Z,31.70
2017-07-25T11:31:27.228Z,31.30
2017-07-25T11:33:54.270Z,30.80
2017-07-25T11:36:21.319Z,30.90
2017-07-25T11:38:48.358Z,32.00
2017-07-25T11:41:15.397Z,33.20
2017-07-25T11:43:43.207Z,33.30
2017-07-25T11:46:10.249Z,33.30
2017-07-25T11:48:37.278Z,33.30
2017-07-25T11:51:04.330Z,33.50
2017-07-25T11:53:31.360Z,33.50
2017-07-25T11:55:58.394Z,33.10
2017-07-25T11:58:26.217Z,31.20
2017-07-25T12:00:53.241Z,31.20
2017-07-25T12:03:20.268Z,32.60
2017-07-25T12:05:48.118Z,33.90
2017-07-25T12:08:15.923Z,35.10
2017-07-25T12:10:42.960Z,34.40
2017-07-25T12:13:10.023Z,34.90
2017-07-25T12:15:37.079Z,35.30
2017-07-25T12:18:04.108Z,34.90
2017-07-25T12:20:31.147Z,35.00
2017-07-25T12:22:58.178Z,34.50
2017-07-25T12:25:25.977Z,35.30
2017-07-25T12:27:53.016Z,35.10
2017-07-25T12:30:20.044Z,33.60
2017-07-25T12:32:47.840Z,34.50
2017-07-25T12:35:14.890Z,34.50
2017-07-25T12:37:41.917Z,34.10
2017-07-25T12:40:09.723Z,33.40
2017-07-25T12:42:36.773Z,33.40
2017-07-25T12:45:03.795Z,33.30
2017-07-25T12:47:30.853Z,32.20
2017-07-25T12:49:57.892Z,32.20
2017-07-25T12:52:24.924Z,32.20
2017-07-25T12:54:52.712Z,32.80
2017-07-25T12:57:19.748Z,32.70
2017-07-25T12:59:46.781Z,32.10
2017-07-25T13:02:20.410Z,31.90
2017-07-25T13:04:47.515Z,31.70
2017-07-25T13:07:14.539Z,30.90
2017-07-25T13:09:41.576Z,31.80
2017-07-25T13:12:08.613Z,31.30
2017-07-25T13:14:35.636Z,30.20
2017-07-25T13:17:02.685Z,29.00
2017-07-25T13:19:30.528Z,29.50
2017-07-25T13:21:57.555Z,29.40
2017-07-25T13:24:24.610Z,29.50
2017-07-25T13:26:51.648Z,30.00
2017-07-25T13:29:18.675Z,29.80
2017-07-25T13:31:45.818Z,29.80
2017-07-25T13:34:12.843Z,30.50
2017-07-25T13:36:40.631Z,30.30
2017-07-25T13:39:07.678Z,30.40
2017-07-25T13:41:34.714Z,30.80
2017-07-25T13:44:01.748Z,30.00
2017-07-25T13:46:29.559Z,30.70
2017-07-25T13:48:56.605Z,30.60
2017-07-25T13:51:23.635Z,31.30
2017-07-25T13:53:50.667Z,31.60
2017-07-25T13:56:17.709Z,32.60
2017-07-25T13:58:45.508Z,31.20
2017-07-25T14:01:12.552Z,31.20
2017-07-25T14:03:39.599Z,29.70
2017-07-25T14:06:06.636Z,30.00
2017-07-25T14:08:33.684Z,30.90
2017-07-25T14:11:00.725Z,30.60
2017-07-25T14:13:27.756Z,30.80
2017-07-25T14:15:55.577Z,31.60
2017-07-25T14:18:22.612Z,31.00
2017-07-25T14:20:49.648Z,31.70
2017-07-25T14:23:16.693Z,31.50
2017-07-25T14:25:43.729Z,31.70
2017-07-25T14:28:11.536Z,31.50
2017-07-25T14:30:38.577Z,31.50
2017-07-25T14:33:05.616Z,31.60
2017-07-25T14:35:32.636Z,32.40
2017-07-25T14:38:00.444Z,31.90
2017-07-25T14:40:27.486Z,31.90
2017-07-25T14:42:54.527Z,32.20
2017-07-25T14:45:21.581Z,32.20
2017-07-25T14:47:48.616Z,31.60
2017-07-25T14:50:15.642Z,31.80
2017-07-25T14:52:43.448Z,29.80
2017-07-25T14:55:10.477Z,29.90
2017-07-25T14:57:37.499Z,28.80
2017-07-25T15:00:05.304Z,30.30
2017-07-25T15:02:32.341Z,30.30
2017-07-25T15:04:59.369Z,30.00
2017-07-25T15:07:27.181Z,29.90
2017-07-25T15:09:54.218Z,29.90
2017-07-25T15:12:21.253Z,29.20
2017-07-25T15:14:48.288Z,29.20
2017-07-25T15:17:15.316Z,29.50
2017-07-25T15:19:42.353Z,30.00
2017-07-25T15:22:09.402Z,30.00
2017-07-25T15:24:36.436Z,30.20
2017-07-25T15:27:03.469Z,30.00
2017-07-25T15:29:30.517Z,30.70
2017-07-25T15:31:57.546Z,31.20
2017-07-25T15:34:24.565Z,31.60
2017-07-25T15:36:52.381Z,32.20
2017-07-25T15:39:19.514Z,32.20
2017-07-25T15:41:46.545Z,31.10
2017-07-25T15:44:13.594Z,29.90
2017-07-25T15:46:40.615Z,29.90
2017-07-25T15:49:08.419Z,30.80
2017-07-25T15:51:35.456Z,30.00
2017-07-25T15:54:02.489Z,30.50
2017-07-25T15:56:30.293Z,30.70
2017-07-25T15:58:57.333Z,30.60
2017-07-25T16:01:24.379Z,30.50
2017-07-25T16:03:51.433Z,30.60
2017-07-25T16:06:18.480Z,30.80
2017-07-25T16:08:45.520Z,31.20
2017-07-25T16:11:12.542Z,30.90
2017-07-25T16:13:40.361Z,31.30
2017-07-25T16:16:07.401Z,31.30
2017-07-25T16:18:34.427Z,30.00
2017-07-25T16:21:01.467Z,30.00
2017-07-25T16:23:29.264Z,31.10
2017-07-25T16:25:56.308Z,31.00
2017-07-25T16:28:23.365Z,30.70
2017-07-25T16:30:50.387Z,30.00
2017-07-25T16:33:17.421Z,31.00
2017-07-25T16:35:45.251Z,30.60
2017-07-25T16:38:12.292Z,30.50
2017-07-25T16:40:39.325Z,30.70
2017-07-25T16:43:06.369Z,30.50
2017-07-25T16:45:33.512Z,30.60
2017-07-25T16:48:00.546Z,30.70
2017-07-25T16:50:27.588Z,30.80
2017-07-25T16:52:54.618Z,29.90
2017-07-25T16:55:22.426Z,29.50
2017-07-25T16:57:49.473Z,29.50
2017-07-25T17:00:16.505Z,30.10
2017-07-25T17:02:43.523Z,29.90
2017-07-25T17:05:10.618Z,29.10
2017-07-25T17:07:37.658Z,30.70
2017-07-25T17:10:04.692Z,30.60
2017-07-25T17:12:31.918Z,31.00
2017-07-25T17:14:58.975Z,31.30
2017-07-25T17:17:26.785Z,32.40
2017-07-25T17:19:53.836Z,31.40
2017-07-25T17:22:20.857Z,30.50
2017-07-25T17:24:47.899Z,31.30
2017-07-25T17:27:15.867Z,29.80
2017-07-25T17:29:43.665Z,30.10
2017-07-25T17:32:10.711Z,30.10
2017-07-25T17:34:37.752Z,30.00
2017-07-25T17:37:04.777Z,29.60
2017-07-25T17:39:32.569Z,28.80
2017-07-25T17:41:59.633Z,28.70
2017-07-25T17:44:26.655Z,30.00
2017-07-25T17:46:53.681Z,30.20
2017-07-25T17:49:21.505Z,31.70
2017-07-25T17:51:48.537Z,31.00
2017-07-25T17:54:15.568Z,31.20
2017-07-25T17:56:42.612Z,30.00
2017-07-25T17:59:09.650Z,29.60
2017-07-25T18:01:37.481Z,29.70
2017-07-25T18:04:04.536Z,29.60
2017-07-25T18:06:31.569Z,29.50
2017-07-25T18:08:58.621Z,28.20
2017-07-25T18:11:25.677Z,29.60
2017-07-25T18:13:52.707Z,29.60
2017-07-25T18:16:19.728Z,29.60
2017-07-25T18:18:46.791Z,29.80
2017-07-25T18:21:13.812Z,28.60
2017-07-25T18:23:40.853Z,30.80
2017-07-25T18:26:08.668Z,32.30
2017-07-25T18:28:35.707Z,32.20
2017-07-25T18:31:02.735Z,32.70
2017-07-25T18:33:29.805Z,35.90
2017-07-25T18:35:56.827Z,37.20
2017-07-25T18:38:23.860Z,39.80
2017-07-25T18:40:51.680Z,43.10
2017-07-25T18:43:18.719Z,43.00
2017-07-25T18:45:45.760Z,44.00
2017-07-25T18:48:12.860Z,44.00
2017-07-25T18:50:39.892Z,43.60
2017-07-25T18:53:06.936Z,43.60
2017-07-25T18:55:33.988Z,43.40
2017-07-25T18:58:01.017Z,43.40
2017-07-25T19:00:28.046Z,43.20
2017-07-25T19:02:55.252Z,42.70
2017-07-25T19:05:22.291Z,43.20
2017-07-25T19:07:49.398Z,42.90
2017-07-25T19:10:16.436Z,42.90
2017-07-25T19:12:43.470Z,42.50
2017-07-25T19:15:11.274Z,42.30
2017-07-25T19:17:38.319Z,43.00
2017-07-25T19:20:05.351Z,42.60
2017-07-25T19:22:32.381Z,42.70
2017-07-25T19:24:59.425Z,42.90
2017-07-25T19:27:27.229Z,42.80
2017-07-25T19:29:54.257Z,42.80
2017-07-25T19:32:21.316Z,42.30
2017-07-25T19:34:48.343Z,42.60
2017-07-25T19:37:15.386Z,42.30
2017-07-25T19:39:43.199Z,42.20
2017-07-25T19:42:10.227Z,42.20
2017-07-25T19:44:37.259Z,42.20
2017-07-25T19:47:04.313Z,42.50
2017-07-25T19:49:31.353Z,42.40
2017-07-25T19:51:58.381Z,42.10
2017-07-25T19:54:26.193Z,41.50
2017-07-25T19:56:53.235Z,41.30
2017-07-25T19:59:20.265Z,42.30
2017-07-25T20:01:47.541Z,41.70
2017-07-25T20:04:14.567Z,41.70
2017-07-25T20:06:41.592Z,42.10
2017-07-25T20:09:09.399Z,42.40
2017-07-25T20:11:36.437Z,42.20
2017-07-25T20:14:03.474Z,42.20
2017-07-25T20:16:30.540Z,42.00
2017-07-25T20:18:57.590Z,42.00
2017-07-25T20:21:24.633Z,41.80
2017-07-25T20:23:51.667Z,41.60
2017-07-25T20:26:19.457Z,42.10
2017-07-25T20:28:46.479Z,42.10
2017-07-25T20:31:14.292Z,41.80
2017-07-25T20:33:41.326Z,41.60
2017-07-25T20:36:08.365Z,41.20
2017-07-25T20:38:35.409Z,41.70
2017-07-25T20:41:02.453Z,41.90
2017-07-25T20:43:29.489Z,42.00
2017-07-25T20:45:57.302Z,40.90
2017-07-25T20:48:24.431Z,40.80
2017-07-25T20:50:51.467Z,41.30
2017-07-25T20:53:18.502Z,41.20
2017-07-25T20:55:45.565Z,40.40
2017-07-25T20:58:12.592Z,41.20
2017-07-25T21:00:40.396Z,41.50
2017-07-25T21:03:07.420Z,41.40
2017-07-25T21:08:05.642Z,42.70
2017-07-25T21:10:32.678Z,42.00
2017-07-25T21:19:07.112Z,40.80
2017-07-25T21:21:34.914Z,41.60
2017-07-25T21:28:19.741Z,40.70
2017-07-25T21:33:54.075Z,41.30
2017-07-25T21:37:42.880Z,41.00
2017-07-25T21:40:11.144Z,42.20
2017-07-25T21:42:39.398Z,42.10
2017-07-25T21:45:06.915Z,41.20
2017-07-25T21:47:34.415Z,43.50
2017-07-25T21:50:01.911Z,41.10
2017-07-25T21:53:21.242Z,42.40
2017-07-25T21:55:48.735Z,41.40
2017-07-25T21:58:16.211Z,42.20
2017-07-25T22:00:43.720Z,41.40
2017-07-25T22:03:23.064Z,43.60
2017-07-25T22:05:50.553Z,43.60
2017-07-25T22:08:18.040Z,42.70
2017-07-25T22:10:45.522Z,42.60
2017-07-25T22:13:13.021Z,43.30
2017-07-25T22:15:40.505Z,42.70
2017-07-25T22:18:07.990Z,42.60
2017-07-25T22:20:35.482Z,42.10
2017-07-25T22:23:02.975Z,43.00
2017-07-25T22:25:30.467Z,42.10
2017-07-25T22:27:57.978Z,43.10
2017-07-25T22:30:25.476Z,43.00
2017-07-25T22:32:52.974Z,42.50
2017-07-25T22:35:20.464Z,42.20
2017-07-25T22:37:48.787Z,43.80
2017-07-25T22:40:16.270Z,43.80
2017-07-25T22:42:43.765Z,43.90
2017-07-25T22:45:11.256Z,43.10
2017-07-25T22:47:38.754Z,43.00
2017-07-25T22:50:06.248Z,43.10
2017-07-25T22:52:34.502Z,43.00
2017-07-25T22:55:01.992Z,43.00
2017-07-25T22:57:29.501Z,43.10
2017-07-25T22:59:57.066Z,45.60
2017-07-25T23:02:24.541Z,44.40
2017-07-25T23:04:52.029Z,43.90
2017-07-25T23:07:19.541Z,43.50
2017-07-25T23:09:47.027Z,45.10
2017-07-25T23:12:15.297Z,45.70
2017-07-25T23:14:43.559Z,44.40
2017-07-25T23:17:11.044Z,44.00
2017-07-25T23:19:39.319Z,44.60
2017-07-25T23:22:07.593Z,43.70
2017-07-25T23:24:36.790Z,43.90
2017-07-25T23:27:06.368Z,43.80
2017-07-25T23:29:34.874Z,43.60
2017-07-25T23:32:04.128Z,43.30
2017-07-25T23:34:34.009Z,44.70
2017-07-25T23:37:01.813Z,44.70
2017-07-25T23:39:30.130Z,45.90
2017-07-25T23:41:59.985Z,45.60
2017-07-25T23:44:27.869Z,45.30
2017-07-25T23:46:55.580Z,46.50
2017-07-25T23:49:23.402Z,46.10
2017-07-25T23:51:51.734Z,45.20
2017-07-25T23:54:19.744Z,45.80
2017-07-25T23:56:47.774Z,47.00
2017-07-25T23:59:15.701Z,48.70
